Time;durP1;ratioP1;P1;durP2;ratioP2;P2;SDS_P1;SDS_P2;PMS_P1;PMS_P2;Temp;Humidity;BMP_temperature;BMP_pressure;BME280_temperature;BME280_humidity;BME280_pressure;Samples;Min_cycle;Max_cycle;Signal;HPM_P1;HPM_P2
2021/08/17 00:00:10;;;;;;;8.02;2.35;;;15.10;81.60;;;;;;2609904;54;20038;-73
2021/08/17 00:02:36;;;;;;;9.30;2.50;;;15.10;81.90;;;;;;2609637;54;20034;-73
2021/08/17 00:05:03;;;;;;;6.70;2.33;;;15.10;82.10;;;;;;2609432;54;20034;-73
2021/08/17 00:07:30;;;;;;;6.40;2.30;;;15.10;81.30;;;;;;2609434;39;20573;-73
2021/08/17 00:09:55;;;;;;;10.77;3.00;;;15.00;81.90;;;;;;2610459;39;20439;-73
2021/08/17 00:12:22;;;;;;;5.55;2.22;;;15.00;82.20;;;;;;2609936;54;20022;-73
2021/08/17 00:14:49;;;;;;;6.57;2.40;;;15.10;81.20;;;;;;2609808;54;20646;-73
2021/08/17 00:17:15;;;;;;;7.85;2.10;;;15.10;81.20;;;;;;2609504;54;20030;-72
2021/08/17 00:19:43;;;;;;;4.80;2.13;;;15.10;81.10;;;;;;2609748;54;20952;-72
2021/08/17 00:22:10;;;;;;;5.63;2.28;;;15.10;81.50;;;;;;2608971;54;20027;-73
2021/08/17 00:24:36;;;;;;;6.47;2.40;;;15.10;81.00;;;;;;2608714;54;20077;-73
2021/08/17 00:27:02;;;;;;;4.97;2.08;;;15.20;80.00;;;;;;2610183;54;20054;-73
2021/08/17 00:29:28;;;;;;;8.30;2.15;;;15.10;81.00;;;;;;2609694;47;20038;-73
2021/08/17 00:31:54;;;;;;;7.97;2.58;;;15.10;80.50;;;;;;2610088;54;20133;-73
2021/08/17 00:34:20;;;;;;;7.38;1.85;;;15.10;79.60;;;;;;2610315;54;20555;-73
2021/08/17 00:36:46;;;;;;;6.15;2.47;;;15.10;79.90;;;;;;2608850;54;20032;-72
2021/08/17 00:39:13;;;;;;;9.05;2.65;;;15.20;80.00;;;;;;2610341;54;20026;-73
2021/08/17 00:41:39;;;;;;;8.65;2.33;;;15.10;80.60;;;;;;2610650;54;20023;-73
2021/08/17 00:44:15;;;;;;;7.45;2.50;;;15.20;80.20;;;;;;2610505;54;20042;-73
2021/08/17 00:46:41;;;;;;;;;;;15.20;80.50;;;;;;2610664;54;20023;-73
2021/08/17 00:49:07;;;;;;;12.77;2.60;;;15.30;79.60;;;;;;2610256;54;20546;-73
2021/08/17 00:51:32;;;;;;;5.65;2.20;;;15.20;79.40;;;;;;2610749;54;20026;-73
2021/08/17 00:53:58;;;;;;;9.73;2.33;;;15.20;80.20;;;;;;2610449;54;20038;-73
2021/08/17 00:56:24;;;;;;;8.18;2.65;;;15.30;80.20;;;;;;2610618;54;20029;-73
2021/08/17 00:58:49;;;;;;;7.25;2.67;;;15.20;79.60;;;;;;2610703;54;20058;-72
2021/08/17 01:01:15;;;;;;;5.57;2.22;;;15.20;78.80;;;;;;2609855;48;20121;-73
2021/08/17 01:03:41;;;;;;;6.70;2.30;;;15.20;78.80;;;;;;2610559;54;20039;-73
2021/08/17 01:06:06;;;;;;;8.93;2.53;;;15.30;79.70;;;;;;2610768;39;20426;-72
2021/08/17 01:08:33;;;;;;;9.88;2.40;;;15.30;79.20;;;;;;2610422;54;20053;-73
2021/08/17 01:10:59;;;;;;;7.07;2.15;;;15.40;79.10;;;;;;2610356;54;20027;-73
2021/08/17 01:13:27;;;;;;;6.95;2.38;;;15.40;79.60;;;;;;2610488;54;20031;-73
2021/08/17 01:15:54;;;;;;;6.60;2.40;;;15.40;79.80;;;;;;2610063;54;20117;-73
2021/08/17 01:18:20;;;;;;;6.15;2.63;;;15.30;78.90;;;;;;2610215;54;20030;-73
2021/08/17 01:20:50;;;;;;;6.18;2.15;;;15.30;79.20;;;;;;2610332;54;20619;-73
2021/08/17 01:23:18;;;;;;;8.00;2.42;;;15.30;78.60;;;;;;2610395;54;20034;-73
2021/08/17 01:25:44;;;;;;;6.05;2.00;;;15.30;79.50;;;;;;2610063;54;20047;-73
2021/08/17 01:28:10;;;;;;;5.70;2.38;;;15.40;78.80;;;;;;2610693;39;20566;-73
2021/08/17 01:30:36;;;;;;;8.40;2.13;;;15.40;78.30;;;;;;2610338;54;20562;-73
2021/08/17 01:33:02;;;;;;;10.50;2.38;;;15.40;78.20;;;;;;2610581;54;20046;-73
2021/08/17 01:35:28;;;;;;;6.82;2.08;;;15.40;78.10;;;;;;2610924;39;20521;-73
2021/08/17 01:37:54;;;;;;;9.27;2.40;;;15.30;78.40;;;;;;2610254;54;20037;-73
2021/08/17 01:40:19;;;;;;;10.05;2.42;;;15.20;78.60;;;;;;2610193;54;20050;-73
2021/08/17 01:42:48;;;;;;;7.15;2.58;;;15.20;78.70;;;;;;2610484;54;20022;-72
2021/08/17 01:45:14;;;;;;;7.18;2.03;;;15.20;78.30;;;;;;2610428;54;20026;-73
2021/08/17 01:47:40;;;;;;;13.43;3.15;;;15.30;78.50;;;;;;2610252;54;20022;-73
2021/08/17 01:50:06;;;;;;;9.45;2.20;;;15.20;78.80;;;;;;2610824;54;20094;-73
2021/08/17 01:52:32;;;;;;;8.40;2.05;;;15.30;78.30;;;;;;2610614;54;20050;-73
2021/08/17 01:54:58;;;;;;;6.93;1.85;;;15.30;79.50;;;;;;2610561;54;20059;-73
2021/08/17 01:57:24;;;;;;;6.80;2.20;;;15.40;78.70;;;;;;2609904;54;20041;-73
2021/08/17 01:59:52;;;;;;;4.72;2.28;;;15.40;78.10;;;;;;2610387;54;20039;-73
2021/08/17 02:02:18;;;;;;;5.72;1.92;;;15.50;77.70;;;;;;2610078;54;20137;-73
2021/08/17 02:04:43;;;;;;;4.35;1.80;;;15.40;78.60;;;;;;2610122;54;20094;-73
2021/08/17 02:07:09;;;;;;;6.68;2.10;;;15.50;78.20;;;;;;2610037;54;20034;-73
2021/08/17 02:09:35;;;;;;;6.80;1.80;;;15.40;78.70;;;;;;2610376;54;20037;-73
2021/08/17 02:12:00;;;;;;;6.20;2.10;;;15.50;78.30;;;;;;2610265;54;20030;-73
2021/08/17 02:14:26;;;;;;;3.13;1.80;;;15.50;78.20;;;;;;2610439;54;20928;-73
2021/08/17 02:16:53;;;;;;;6.88;1.92;;;15.60;78.20;;;;;;2610407;54;20023;-73
2021/08/17 02:19:19;;;;;;;6.40;1.70;;;15.60;77.10;;;;;;2610656;54;20082;-74
2021/08/17 02:21:45;;;;;;;5.82;1.90;;;15.50;77.90;;;;;;2610725;54;20026;-73
2021/08/17 02:24:11;;;;;;;8.02;1.98;;;15.60;77.30;;;;;;2610675;54;20056;-73
2021/08/17 02:26:36;;;;;;;7.18;2.03;;;15.60;77.70;;;;;;2610496;54;20059;-73
2021/08/17 02:29:02;;;;;;;7.93;1.90;;;15.60;78.30;;;;;;2610407;54;20132;-73
2021/08/17 02:31:28;;;;;;;5.47;1.95;;;15.60;78.00;;;;;;2610475;54;20594;-73
2021/08/17 02:33:54;;;;;;;6.10;1.85;;;15.60;77.60;;;;;;2609554;54;20033;-73
2021/08/17 02:36:19;;;;;;;5.13;1.67;;;15.60;77.60;;;;;;2610052;54;20122;-73
2021/08/17 02:38:45;;;;;;;6.80;2.15;;;15.70;77.20;;;;;;2609954;54;20030;-73
2021/08/17 02:41:11;;;;;;;9.00;2.72;;;15.70;77.50;;;;;;2609529;47;20030;-73
2021/08/17 02:43:36;;;;;;;7.97;1.83;;;15.60;78.10;;;;;;2610173;54;20045;-73
2021/08/17 02:46:02;;;;;;;5.05;1.95;;;15.70;77.70;;;;;;2610083;54;20834;-73
2021/08/17 02:48:28;;;;;;;7.00;1.92;;;15.70;77.60;;;;;;2609691;54;20022;-73
2021/08/17 02:50:53;;;;;;;9.02;2.50;;;15.70;77.40;;;;;;2610116;54;20026;-72
2021/08/17 02:53:19;;;;;;;6.43;2.10;;;15.70;77.40;;;;;;2610028;54;20038;-73
2021/08/17 02:55:45;;;;;;;11.25;2.35;;;15.70;77.60;;;;;;2609870;54;20033;-73
2021/08/17 02:58:11;;;;;;;4.78;2.30;;;15.60;77.50;;;;;;2609850;54;20055;-73
2021/08/17 03:00:39;;;;;;;7.18;2.40;;;15.60;77.80;;;;;;2610192;54;20022;-73
2021/08/17 03:03:05;;;;;;;4.65;2.22;;;15.60;77.60;;;;;;2609667;54;20030;-73
2021/08/17 03:05:30;;;;;;;6.13;2.10;;;15.60;78.20;;;;;;2610089;54;20038;-73
2021/08/17 03:08:00;;;;;;;6.47;2.00;;;15.70;77.90;;;;;;2609948;54;20050;-73
2021/08/17 03:10:26;;;;;;;6.75;2.50;;;15.70;77.80;;;;;;2610082;54;20059;-73
2021/08/17 03:12:52;;;;;;;6.60;1.90;;;15.80;77.70;;;;;;2610298;54;20070;-73
2021/08/17 03:15:19;;;;;;;6.30;3.00;;;15.80;77.20;;;;;;2609351;54;20069;-73
2021/08/17 03:17:45;;;;;;;4.50;2.20;;;15.70;77.40;;;;;;2609061;54;20071;-73
2021/08/17 03:20:13;;;;;;;9.88;2.60;;;15.70;77.60;;;;;;2610248;54;20068;-73
2021/08/17 03:22:39;;;;;;;5.05;2.42;;;15.60;79.00;;;;;;2609606;54;20044;-73
2021/08/17 03:25:07;;;;;;;6.22;2.47;;;15.60;78.30;;;;;;2610054;54;21064;-73
2021/08/17 03:27:33;;;;;;;11.82;2.10;;;15.60;78.80;;;;;;2610064;54;20026;-73
2021/08/17 03:29:58;;;;;;;9.68;2.38;;;15.70;78.50;;;;;;2610304;54;20589;-73
2021/08/17 03:32:24;;;;;;;6.03;1.98;;;15.80;78.40;;;;;;2610106;54;20027;-73
2021/08/17 03:34:51;;;;;;;8.55;2.20;;;15.70;78.10;;;;;;2610493;54;20534;-74
2021/08/17 03:37:17;;;;;;;5.38;2.20;;;15.70;78.40;;;;;;2608933;47;20031;-72
2021/08/17 03:39:43;;;;;;;11.98;2.60;;;15.80;78.40;;;;;;2609550;54;20122;-73
2021/08/17 03:42:09;;;;;;;6.38;2.00;;;15.70;78.00;;;;;;2610153;54;20030;-73
2021/08/17 03:44:34;;;;;;;6.05;2.17;;;15.80;78.70;;;;;;2610123;54;20121;-73
2021/08/17 03:47:00;;;;;;;6.40;2.10;;;15.70;78.70;;;;;;2609883;54;20057;-75
2021/08/17 03:49:26;;;;;;;5.68;2.00;;;15.70;79.20;;;;;;2610517;54;20057;-74
2021/08/17 03:51:51;;;;;;;11.23;2.50;;;15.80;78.80;;;;;;2610186;54;21040;-74
2021/08/17 03:54:17;;;;;;;6.40;1.90;;;15.80;78.90;;;;;;2610039;54;20118;-74
2021/08/17 03:56:43;;;;;;;6.47;2.13;;;15.80;78.90;;;;;;2609167;54;20022;-74
2021/08/17 03:59:08;;;;;;;12.43;3.15;;;15.70;79.50;;;;;;2609784;54;20042;-75
2021/08/17 04:01:34;;;;;;;7.88;2.25;;;15.70;79.50;;;;;;2610476;54;20938;-75
2021/08/17 04:04:00;;;;;;;7.88;2.45;;;15.60;80.40;;;;;;2611008;54;20134;-74
2021/08/17 04:06:26;;;;;;;6.00;1.80;;;15.60;80.90;;;;;;2610524;54;20027;-74
2021/08/17 04:08:53;;;;;;;10.32;2.78;;;15.60;80.40;;;;;;2609794;54;20030;-74
2021/08/17 04:11:19;;;;;;;9.50;1.95;;;15.70;80.20;;;;;;2610718;54;20030;-74
2021/08/17 04:13:44;;;;;;;8.20;2.75;;;15.80;80.10;;;;;;2611264;39;20535;-74
2021/08/17 04:16:10;;;;;;;6.85;2.20;;;15.90;79.90;;;;;;2611214;39;20462;-74
2021/08/17 04:18:36;;;;;;;7.05;2.33;;;15.90;79.60;;;;;;2610252;54;20122;-74
2021/08/17 04:21:02;;;;;;;6.65;2.17;;;15.90;79.30;;;;;;2610779;54;20965;-74
2021/08/17 04:23:27;;;;;;;6.43;2.20;;;15.90;80.40;;;;;;2610171;46;20042;-74
2021/08/17 04:25:53;;;;;;;8.65;2.75;;;16.00;79.80;;;;;;2610632;54;20031;-74
2021/08/17 04:28:19;;;;;;;10.65;2.53;;;16.10;79.80;;;;;;2609554;54;20018;-75
2021/08/17 04:30:44;;;;;;;9.52;2.30;;;16.10;79.20;;;;;;2609916;54;20067;-75
2021/08/17 04:33:10;;;;;;;9.02;2.13;;;16.10;79.40;;;;;;2609919;54;20038;-74
2021/08/17 04:35:36;;;;;;;7.45;2.10;;;16.20;79.00;;;;;;2610244;54;20034;-74
2021/08/17 04:38:01;;;;;;;9.60;2.20;;;16.10;79.70;;;;;;2609529;54;20041;-75
2021/08/17 04:40:28;;;;;;;10.35;2.35;;;16.20;79.30;;;;;;2609558;54;20034;-74
2021/08/17 04:42:54;;;;;;;9.85;2.03;;;16.20;79.50;;;;;;2610032;54;20027;-75
2021/08/17 04:45:20;;;;;;;11.27;2.33;;;16.20;79.60;;;;;;2609979;54;20030;-74
2021/08/17 04:47:48;;;;;;;8.20;2.15;;;16.30;79.10;;;;;;2608835;47;20039;-74
2021/08/17 04:50:14;;;;;;;6.63;1.98;;;16.30;79.40;;;;;;2609764;54;20141;-74
2021/08/17 04:52:40;;;;;;;7.95;2.58;;;16.30;79.20;;;;;;2610043;54;20022;-74
2021/08/17 04:55:06;;;;;;;5.00;2.00;;;16.30;79.40;;;;;;2610545;39;20443;-74
2021/08/17 04:57:44;;;;;;;9.88;2.33;;;16.30;79.80;;;;;;2609581;54;20047;-75
2021/08/17 05:00:11;;;;;;;9.18;2.58;;;16.40;79.90;;;;;;2609942;54;20138;-74
2021/08/17 05:02:36;;;;;;;7.25;2.45;;;16.50;79.10;;;;;;2610482;39;20437;-74
2021/08/17 05:05:02;;;;;;;7.30;2.30;;;16.50;79.30;;;;;;2610110;54;20045;-74
2021/08/17 05:07:28;;;;;;;6.03;2.55;;;16.60;79.30;;;;;;2609951;54;20022;-74
2021/08/17 05:09:53;;;;;;;9.73;2.60;;;16.60;79.60;;;;;;2609674;54;20153;-74
2021/08/17 05:12:19;;;;;;;9.07;2.20;;;16.60;79.40;;;;;;2609822;54;20023;-74
2021/08/17 05:14:44;;;;;;;7.43;2.42;;;16.60;79.40;;;;;;2609844;54;20034;-74
2021/08/17 05:17:10;;;;;;;11.50;2.50;;;16.50;80.00;;;;;;2609590;54;20090;-74
2021/08/17 05:19:36;;;;;;;9.10;2.65;;;16.50;80.20;;;;;;2609029;47;20034;-74
2021/08/17 05:22:01;;;;;;;8.13;2.78;;;16.50;80.50;;;;;;2609205;54;20038;-74
2021/08/17 05:24:27;;;;;;;8.65;2.47;;;16.60;80.60;;;;;;2610095;54;20041;-74
2021/08/17 05:26:53;;;;;;;13.13;2.95;;;16.60;80.80;;;;;;2609396;54;20091;-74
2021/08/17 05:29:19;;;;;;;10.60;3.33;;;16.60;80.70;;;;;;2610357;54;20830;-74
2021/08/17 05:31:44;;;;;;;12.02;3.22;;;16.40;80.60;;;;;;2610329;54;20141;-74
2021/08/17 05:34:10;;;;;;;9.32;2.80;;;16.30;81.70;;;;;;2610450;54;20038;-75
2021/08/17 05:36:35;;;;;;;7.55;2.80;;;16.30;82.20;;;;;;2609690;54;20026;-74
2021/08/17 05:39:01;;;;;;;8.93;2.47;;;16.30;83.00;;;;;;2609858;54;20030;-74
2021/08/17 05:41:27;;;;;;;12.00;2.97;;;16.30;83.60;;;;;;2610459;54;20589;-74
2021/08/17 05:43:52;;;;;;;9.35;3.17;;;16.30;83.50;;;;;;2610715;54;20042;-74
2021/08/17 05:46:18;;;;;;;7.22;2.55;;;16.30;82.90;;;;;;2610658;54;20039;-74
2021/08/17 05:48:44;;;;;;;10.38;3.30;;;16.40;82.90;;;;;;2610419;54;20061;-74
2021/08/17 05:51:10;;;;;;;10.80;3.00;;;16.40;83.00;;;;;;2610803;54;20045;-74
2021/08/17 05:53:35;;;;;;;11.10;3.05;;;16.40;83.40;;;;;;2610694;54;20887;-75
2021/08/17 05:56:01;;;;;;;11.63;3.28;;;16.40;82.70;;;;;;2610809;54;20029;-74
2021/08/17 05:58:27;;;;;;;8.68;3.38;;;16.50;82.40;;;;;;2610362;54;20030;-74
2021/08/17 06:00:52;;;;;;;8.13;3.13;;;16.50;81.80;;;;;;2611243;39;20319;-75
2021/08/17 06:03:18;;;;;;;11.57;2.50;;;16.50;82.20;;;;;;2610907;54;20034;-75
2021/08/17 06:05:44;;;;;;;8.93;2.72;;;16.60;82.40;;;;;;2611016;54;20036;-75
2021/08/17 06:08:09;;;;;;;8.43;2.22;;;16.70;81.60;;;;;;2610423;39;20454;-75
2021/08/17 06:10:35;;;;;;;8.20;2.80;;;16.80;81.70;;;;;;2610532;39;20551;-75
2021/08/17 06:13:01;;;;;;;7.55;2.63;;;17.00;81.10;;;;;;2610410;54;20133;-74
2021/08/17 06:15:26;;;;;;;9.77;2.85;;;17.20;79.50;;;;;;2610368;54;20046;-73
2021/08/17 06:17:52;;;;;;;12.90;3.13;;;17.10;79.60;;;;;;2609929;54;20034;-74
2021/08/17 06:20:19;;;;;;;7.60;2.53;;;17.10;79.80;;;;;;2610247;54;20055;-72
2021/08/17 06:22:45;;;;;;;10.30;2.78;;;17.10;79.20;;;;;;2609841;54;20023;-74
2021/08/17 06:25:11;;;;;;;9.10;2.90;;;17.10;78.70;;;;;;2609915;39;20129;-74
2021/08/17 06:27:37;;;;;;;8.45;2.72;;;17.20;79.10;;;;;;2610034;39;20503;-75
2021/08/17 06:30:05;;;;;;;10.88;2.80;;;17.20;79.30;;;;;;2609716;54;20976;-75
2021/08/17 06:32:31;;;;;;;7.30;2.70;;;17.20;78.40;;;;;;2610158;54;20076;-75
2021/08/17 06:34:57;;;;;;;15.93;3.25;;;17.20;77.90;;;;;;2609883;54;20038;-74
2021/08/17 06:37:22;;;;;;;13.27;2.80;;;17.10;78.60;;;;;;2609587;54;20026;-75
2021/08/17 06:39:48;;;;;;;11.65;2.70;;;17.10;78.60;;;;;;2609038;54;20594;-74
2021/08/17 06:42:14;;;;;;;16.55;3.40;;;17.00;78.30;;;;;;2609851;54;20053;-74
2021/08/17 06:44:39;;;;;;;12.65;2.90;;;17.00;78.50;;;;;;2609205;54;20030;-74
2021/08/17 06:47:05;;;;;;;9.52;3.08;;;17.00;78.20;;;;;;2609541;54;20166;-75
2021/08/17 06:49:31;;;;;;;10.30;2.70;;;16.90;79.10;;;;;;2609648;54;20034;-75
2021/08/17 06:51:56;;;;;;;8.25;2.80;;;17.00;79.70;;;;;;2604601;54;20051;-74
2021/08/17 06:54:22;;;;;;;11.80;3.08;;;16.90;79.00;;;;;;2610282;39;20569;-74
2021/08/17 06:56:48;;;;;;;13.43;3.85;;;17.00;79.70;;;;;;2610194;39;20482;-75
2021/08/17 06:59:13;;;;;;;7.15;2.70;;;17.00;79.60;;;;;;2609186;54;20075;-74
2021/08/17 07:01:39;;;;;;;8.32;2.88;;;17.10;78.80;;;;;;2609429;54;20069;-74
2021/08/17 07:04:05;;;;;;;14.32;2.97;;;17.20;78.30;;;;;;2610139;54;20037;-74
2021/08/17 07:06:34;;;;;;;13.27;3.10;;;17.30;77.90;;;;;;2609710;54;20041;-75
2021/08/17 07:09:02;;;;;;;10.55;2.80;;;17.30;78.30;;;;;;2609659;54;20185;-71
2021/08/17 07:11:28;;;;;;;10.75;2.80;;;17.30;78.70;;;;;;2609936;54;20057;-72
2021/08/17 07:13:54;;;;;;;11.50;2.60;;;17.40;77.80;;;;;;2609707;54;20041;-72
2021/08/17 07:16:20;;;;;;;13.50;2.67;;;17.40;77.70;;;;;;2609929;54;20045;-73
2021/08/17 07:18:45;;;;;;;9.07;2.45;;;17.30;78.00;;;;;;2609681;54;20563;-73
2021/08/17 07:21:11;;;;;;;10.48;2.83;;;17.30;77.70;;;;;;2609724;54;20034;-72
2021/08/17 07:23:36;;;;;;;8.65;2.53;;;17.30;77.50;;;;;;2610186;54;20153;-73
2021/08/17 07:26:02;;;;;;;9.70;2.95;;;17.20;78.60;;;;;;2609862;54;20027;-73
2021/08/17 07:28:28;;;;;;;6.03;2.45;;;17.20;79.00;;;;;;2609195;54;20591;-73
2021/08/17 07:30:54;;;;;;;8.95;2.25;;;17.30;78.80;;;;;;2609440;54;20034;-73
2021/08/17 07:33:20;;;;;;;9.45;2.72;;;17.30;77.70;;;;;;2610006;54;20037;-73
2021/08/17 07:35:46;;;;;;;9.18;2.78;;;17.40;78.40;;;;;;2610070;54;20039;-73
2021/08/17 07:38:11;;;;;;;12.05;2.40;;;17.40;78.40;;;;;;2610166;54;20023;-73
2021/08/17 07:40:37;;;;;;;10.93;2.30;;;17.60;77.50;;;;;;2609950;47;20027;-72
2021/08/17 07:43:03;;;;;;;6.60;2.45;;;17.50;76.70;;;;;;2610571;54;20038;-72
2021/08/17 07:45:29;;;;;;;8.30;2.50;;;17.50;77.90;;;;;;2610479;54;20579;-73
2021/08/17 07:47:55;;;;;;;9.02;2.67;;;17.50;77.40;;;;;;2610075;54;20038;-73
2021/08/17 07:50:20;;;;;;;9.18;2.58;;;17.40;77.80;;;;;;2609937;54;20041;-72
2021/08/17 07:52:46;;;;;;;7.80;2.42;;;17.40;78.00;;;;;;2610457;54;20153;-72
2021/08/17 07:55:14;;;;;;;7.00;2.22;;;17.40;77.60;;;;;;2610701;39;20431;-72
2021/08/17 07:57:40;;;;;;;9.93;2.58;;;17.40;77.80;;;;;;2609109;54;20045;-73
2021/08/17 08:00:09;;;;;;;7.45;2.00;;;17.40;77.60;;;;;;2609579;54;20036;-74
2021/08/17 08:02:35;;;;;;;9.82;2.72;;;17.50;77.50;;;;;;2609785;54;20037;-74
2021/08/17 08:05:01;;;;;;;6.00;2.25;;;17.50;76.90;;;;;;2610635;54;20110;-75
2021/08/17 08:07:26;;;;;;;6.55;2.38;;;17.60;76.70;;;;;;2611044;54;20038;-75
2021/08/17 08:09:52;;;;;;;10.85;2.50;;;17.60;77.40;;;;;;2609391;47;20037;-75
2021/08/17 08:12:18;;;;;;;11.13;2.72;;;17.70;77.40;;;;;;2609846;54;20041;-76
2021/08/17 08:14:44;;;;;;;7.53;2.30;;;17.70;77.20;;;;;;2610008;54;20068;-75
2021/08/17 08:17:09;;;;;;;6.82;2.08;;;17.80;75.90;;;;;;2610103;54;20058;-76
2021/08/17 08:19:36;;;;;;;10.07;2.40;;;17.70;75.80;;;;;;2610177;39;20455;-73
2021/08/17 08:22:03;;;;;;;9.00;2.65;;;17.60;76.20;;;;;;2610077;47;20097;-74
2021/08/17 08:24:29;;;;;;;6.72;2.30;;;17.60;76.60;;;;;;2610598;54;20042;-77
2021/08/17 08:26:55;;;;;;;7.93;2.20;;;17.60;76.10;;;;;;2610285;54;20037;-75
2021/08/17 08:29:21;;;;;;;8.85;2.65;;;17.50;76.60;;;;;;2610058;54;20065;-75
2021/08/17 08:31:47;;;;;;;8.13;2.55;;;17.60;76.40;;;;;;2610437;54;20145;-75
2021/08/17 08:34:12;;;;;;;10.77;2.55;;;17.60;76.60;;;;;;2609895;54;20571;-75
2021/08/17 08:36:38;;;;;;;9.93;2.20;;;17.60;75.50;;;;;;2610788;54;20042;-76
2021/08/17 08:39:04;;;;;;;12.68;2.90;;;17.50;76.90;;;;;;2610730;54;20043;-75
2021/08/17 08:41:29;;;;;;;10.05;2.72;;;17.50;76.80;;;;;;2610290;54;20038;-75
2021/08/17 08:43:58;;;;;;;11.68;3.10;;;17.60;76.30;;;;;;2610826;54;20072;-76
2021/08/17 08:46:24;;;;;;;9.20;3.22;;;17.50;76.70;;;;;;2610947;54;20038;-76
2021/08/17 08:48:52;;;;;;;9.55;2.95;;;17.40;77.70;;;;;;2610403;54;20034;-75
2021/08/17 08:51:20;;;;;;;9.30;3.15;;;17.40;78.00;;;;;;2610981;54;20056;-76
2021/08/17 08:53:47;;;;;;;8.40;2.30;;;17.50;77.30;;;;;;2610022;47;20027;-73
2021/08/17 08:56:13;;;;;;;10.23;2.20;;;17.40;77.60;;;;;;2610011;54;20044;-74
2021/08/17 08:58:40;;;;;;;7.65;2.10;;;17.40;77.40;;;;;;2609929;54;21107;-73
2021/08/17 09:01:10;;;;;;;10.45;2.33;;;17.40;76.80;;;;;;2609709;54;20046;-74
2021/08/17 09:03:50;;;;;;;6.65;2.60;;;17.40;77.00;;;;;;2610677;54;20034;-74
2021/08/17 09:06:21;;;;;;;8.20;2.40;;;17.40;76.70;;;;;;2610099;54;20065;-75
2021/08/17 09:09:03;;;;;;;10.30;3.15;;;17.50;76.60;;;;;;2609245;54;20071;-76
2021/08/17 09:11:28;;;;;;;5.95;2.13;;;17.50;75.40;;;;;;2609636;54;20038;-74
2021/08/17 09:13:54;;;;;;;7.40;2.20;;;17.40;76.10;;;;;;2610979;39;20436;-74
2021/08/17 09:16:28;;;;;;;11.13;2.70;;;17.50;77.00;;;;;;2610340;54;20039;-73
2021/08/17 09:18:55;;;;;;;9.57;2.78;;;17.50;75.60;;;;;;2610707;54;20037;-75
2021/08/17 09:21:41;;;;;;;7.38;2.47;;;17.60;74.30;;;;;;2610617;54;20034;-74
2021/08/17 09:24:17;;;;;;;9.02;2.35;;;17.70;75.20;;;;;;2611154;39;20089;-74
2021/08/17 09:26:48;;;;;;;;;;;17.80;75.00;;;;;;2610438;54;20059;-74
2021/08/17 09:29:32;;;;;;;6.43;2.40;;;17.90;72.20;;;;;;2611430;39;20823;-74
2021/08/17 09:32:11;;;;;;;11.00;2.40;;;17.90;72.90;;;;;;2610905;54;20035;-74
2021/08/17 09:34:37;;;;;;;11.13;2.10;;;17.90;73.50;;;;;;2610986;54;21062;-75
2021/08/17 09:37:07;;;;;;;6.95;2.42;;;17.90;72.30;;;;;;2609934;54;20038;-74
2021/08/17 09:39:45;;;;;;;9.75;2.25;;;17.90;73.50;;;;;;2609990;54;20841;-75
2021/08/17 09:42:23;;;;;;;9.25;2.33;;;18.00;73.30;;;;;;2610423;54;20046;-74
2021/08/17 09:45:04;;;;;;;8.23;2.35;;;18.00;71.70;;;;;;2610872;54;20129;-75
2021/08/17 09:47:30;;;;;;;8.13;2.20;;;18.10;72.20;;;;;;2609986;54;20134;-74
2021/08/17 09:49:55;;;;;;;9.48;1.70;;;18.00;72.10;;;;;;2609762;54;20063;-74
2021/08/17 09:52:21;;;;;;;11.10;2.70;;;18.00;72.00;;;;;;2609555;47;20027;-74
2021/08/17 09:54:48;;;;;;;8.57;2.55;;;18.10;71.20;;;;;;2609697;47;20780;-76
2021/08/17 09:57:15;;;;;;;7.90;2.50;;;18.10;72.10;;;;;;2609924;54;20038;-77
2021/08/17 09:59:46;;;;;;;10.45;2.75;;;18.30;70.00;;;;;;2610134;54;20161;-74
2021/08/17 10:02:12;;;;;;;6.93;2.30;;;18.50;69.70;;;;;;2610294;54;20030;-75
2021/08/17 10:04:40;;;;;;;15.23;3.22;;;18.40;68.10;;;;;;2610401;54;20086;-74
2021/08/17 10:07:07;;;;;;;8.10;2.30;;;18.50;69.60;;;;;;2610101;54;20157;-75
2021/08/17 10:09:35;;;;;;;7.47;2.10;;;18.50;69.40;;;;;;2610034;54;20038;-76
2021/08/17 10:12:02;;;;;;;11.55;2.30;;;18.50;69.10;;;;;;2610312;39;20090;-77
2021/08/17 10:14:29;;;;;;;8.77;2.20;;;18.60;68.30;;;;;;2610238;54;20820;-75
2021/08/17 10:16:55;;;;;;;5.90;2.17;;;18.70;67.90;;;;;;2609998;54;20035;-76
2021/08/17 10:19:26;;;;;;;8.45;2.13;;;18.80;67.60;;;;;;2609683;54;20065;-75
2021/08/17 10:21:54;;;;;;;7.05;2.15;;;18.90;67.80;;;;;;2609964;54;20042;-75
2021/08/17 10:24:32;;;;;;;7.80;2.28;;;19.10;68.30;;;;;;2609680;54;20034;-74
2021/08/17 10:27:24;;;;;;;9.65;2.22;;;19.20;67.60;;;;;;2610185;54;20157;-74
2021/08/17 10:29:59;;;;;;;10.52;2.17;;;19.30;65.10;;;;;;2610423;54;20030;-74
2021/08/17 10:32:41;;;;;;;6.57;1.90;;;19.30;65.50;;;;;;2610311;54;20133;-75
2021/08/17 10:35:27;;;;;;;9.75;2.08;;;19.40;64.40;;;;;;2610380;54;20039;-75
2021/08/17 10:38:16;;;;;;;8.65;1.80;;;19.20;67.20;;;;;;2610184;54;20061;-75
2021/08/17 10:40:51;;;;;;;8.07;2.28;;;19.10;68.40;;;;;;2609147;54;20056;-74
2021/08/17 10:43:42;;;;;;;4.78;1.70;;;19.00;68.30;;;;;;2610163;54;20043;-75
2021/08/17 10:46:10;;;;;;;7.22;2.20;;;18.90;70.10;;;;;;2610057;54;20649;-75
2021/08/17 10:48:48;;;;;;;8.52;2.05;;;19.00;69.80;;;;;;2610113;54;20038;-77
2021/08/17 10:51:22;;;;;;;9.50;2.05;;;19.00;70.60;;;;;;2609667;54;20046;-75
2021/08/17 10:54:18;;;;;;;6.70;2.00;;;18.90;69.40;;;;;;2610131;54;20611;-75
2021/08/17 10:56:47;;;;;;;8.90;2.42;;;19.00;68.60;;;;;;2609825;54;20171;-77
2021/08/17 10:59:13;;;;;;;8.18;2.45;;;19.00;70.10;;;;;;2611085;39;20854;-75
2021/08/17 11:01:47;;;;;;;7.50;2.35;;;19.00;68.50;;;;;;2610550;54;20038;-75
2021/08/17 11:04:12;;;;;;;7.43;2.30;;;19.00;68.00;;;;;;2610489;54;20069;-75
2021/08/17 11:06:49;;;;;;;11.48;2.03;;;18.90;68.90;;;;;;2609463;54;20126;-75
2021/08/17 11:09:25;;;;;;;12.20;2.10;;;18.90;68.50;;;;;;2609903;54;20055;-75
2021/08/17 11:12:02;;;;;;;9.43;2.50;;;18.90;68.70;;;;;;2609638;54;20046;-75
2021/08/17 11:14:32;;;;;;;6.55;2.17;;;18.90;68.60;;;;;;2610036;54;20042;-75
2021/08/17 11:17:01;;;;;;;5.20;1.95;;;18.90;68.60;;;;;;2610037;54;20034;-75
2021/08/17 11:19:32;;;;;;;12.02;2.30;;;19.00;69.00;;;;;;2610063;54;20034;-74
2021/08/17 11:22:03;;;;;;;7.85;2.17;;;19.10;67.80;;;;;;2610247;39;20558;-76
2021/08/17 11:24:31;;;;;;;5.47;1.95;;;19.00;69.30;;;;;;2609649;54;20042;-76
2021/08/17 11:27:03;;;;;;;7.05;2.03;;;18.90;68.30;;;;;;2608866;54;20034;-75
2021/08/17 11:29:46;;;;;;;5.50;2.03;;;18.80;70.70;;;;;;2609441;47;20030;-75
2021/08/17 11:32:31;;;;;;;18.70;3.28;;;18.90;71.40;;;;;;2609695;54;20043;-74
2021/08/17 11:35:12;;;;;;;7.05;2.35;;;19.00;72.60;;;;;;2609992;54;20833;-75
2021/08/17 11:37:42;;;;;;;11.50;2.72;;;19.10;69.60;;;;;;2609126;54;20031;-75
2021/08/17 11:40:09;;;;;;;8.68;2.40;;;19.20;68.40;;;;;;2609641;54;20912;-76
2021/08/17 11:42:37;;;;;;;10.25;2.42;;;19.20;69.00;;;;;;2609158;54;20034;-78
2021/08/17 11:45:14;;;;;;;12.75;2.35;;;19.20;69.10;;;;;;2609163;54;20042;-76
2021/08/17 11:47:42;;;;;;;8.50;2.10;;;19.30;68.80;;;;;;2610118;54;20030;-76
2021/08/17 11:50:16;;;;;;;15.60;2.25;;;19.60;65.70;;;;;;2610458;54;20042;-75
2021/08/17 11:52:50;;;;;;;11.20;2.20;;;19.70;66.00;;;;;;2609849;54;20574;-76
2021/08/17 11:55:17;;;;;;;10.57;2.08;;;19.80;63.80;;;;;;2610232;54;20701;-76
2021/08/17 11:57:46;;;;;;;9.30;2.20;;;19.80;63.30;;;;;;2609505;54;20098;-76
2021/08/17 12:00:18;;;;;;;8.13;1.98;;;19.70;64.30;;;;;;2610386;54;20126;-75
2021/08/17 12:02:46;;;;;;;6.55;2.20;;;19.80;66.00;;;;;;2609893;54;20572;-76
2021/08/17 12:05:17;;;;;;;7.80;1.83;;;19.70;65.30;;;;;;2610285;54;20050;-75
2021/08/17 12:07:45;;;;;;;7.10;2.35;;;19.70;63.10;;;;;;2609845;54;20041;-76
2021/08/17 12:10:16;;;;;;;9.07;2.30;;;19.70;64.80;;;;;;2610459;54;20171;-75
2021/08/17 12:13:07;;;;;;;11.60;2.15;;;19.60;63.60;;;;;;2610193;54;20055;-76
2021/08/17 12:15:40;;;;;;;10.43;2.10;;;19.50;62.10;;;;;;2610335;54;20042;-76
2021/08/17 12:18:08;;;;;;;4.97;1.55;;;19.30;62.70;;;;;;2609503;54;20034;-75
2021/08/17 12:20:54;;;;;;;10.20;2.45;;;19.30;62.30;;;;;;2610502;39;20876;-76
2021/08/17 12:23:27;;;;;;;4.90;1.52;;;19.30;62.00;;;;;;2610745;54;20147;-75
2021/08/17 12:26:19;;;;;;;9.35;1.55;;;19.20;62.80;;;;;;2610918;54;20078;-76
2021/08/17 12:28:48;;;;;;;7.88;1.77;;;19.20;62.10;;;;;;2611041;54;20049;-72
2021/08/17 12:31:40;;;;;;;7.65;2.15;;;19.30;63.30;;;;;;2610506;54;20053;-76
2021/08/17 12:34:05;;;;;;;9.48;1.90;;;19.40;63.10;;;;;;2609699;54;20034;-76
2021/08/17 12:36:37;;;;;;;8.57;2.33;;;19.50;64.20;;;;;;2610828;54;20055;-75
2021/08/17 12:39:29;;;;;;;8.70;1.88;;;19.50;62.60;;;;;;2610486;54;20041;-76
2021/08/17 12:41:57;;;;;;;11.10;2.00;;;19.60;62.10;;;;;;2610134;54;20042;-75
2021/08/17 12:44:35;;;;;;;9.93;2.00;;;19.50;61.40;;;;;;2610499;54;20925;-73
2021/08/17 12:47:13;;;;;;;4.82;1.70;;;19.50;62.00;;;;;;2610350;54;20133;-76
2021/08/17 12:49:45;;;;;;;8.10;1.95;;;19.50;62.10;;;;;;2610136;54;20048;-76